createdAt,value
2017-09-06T00:02:21.472Z,18.40
2017-09-06T00:04:49.385Z,18.40
2017-09-06T00:07:16.532Z,18.30
2017-09-06T00:09:43.685Z,18.40
2017-09-06T00:12:10.875Z,18.40
2017-09-06T00:14:38.033Z,18.40
2017-09-06T00:17:05.218Z,18.40
2017-09-06T00:19:32.373Z,18.40
2017-09-06T00:21:59.561Z,18.40
2017-09-06T00:24:26.743Z,18.40
2017-09-06T00:26:53.888Z,18.40
2017-09-06T00:29:21.036Z,18.40
2017-09-06T00:31:48.964Z,18.40
2017-09-06T00:34:16.146Z,18.30
2017-09-06T00:36:43.305Z,18.30
2017-09-06T00:39:10.516Z,18.40
2017-09-06T00:41:37.674Z,18.40
2017-09-06T00:44:04.827Z,18.30
2017-09-06T00:46:31.979Z,18.30
2017-09-06T00:48:59.165Z,18.30
2017-09-06T00:51:26.317Z,18.40
2017-09-06T00:53:53.496Z,18.30
2017-09-06T00:56:20.645Z,18.30
2017-09-06T00:58:47.828Z,18.30
2017-09-06T01:01:14.980Z,18.30
2017-09-06T01:03:42.171Z,18.30
2017-09-06T01:06:09.329Z,18.30
2017-09-06T01:08:36.517Z,18.30
2017-09-06T01:11:03.672Z,18.30
2017-09-06T01:13:30.825Z,18.30
2017-09-06T01:15:57.967Z,18.30
2017-09-06T01:18:25.120Z,18.30
2017-09-06T01:20:52.277Z,18.30
2017-09-06T01:23:19.427Z,18.30
2017-09-06T01:25:46.608Z,18.30
2017-09-06T01:28:13.757Z,18.30
2017-09-06T01:30:40.900Z,18.30
2017-09-06T01:33:08.052Z,18.30
2017-09-06T01:35:35.287Z,18.30
2017-09-06T01:38:02.441Z,18.30
2017-09-06T01:40:29.592Z,18.30
2017-09-06T01:42:56.741Z,18.30
2017-09-06T01:45:23.896Z,18.30
2017-09-06T01:47:51.039Z,18.30
2017-09-06T01:50:18.224Z,18.30
2017-09-06T01:52:45.371Z,18.30
2017-09-06T01:55:12.516Z,18.30
2017-09-06T01:57:39.707Z,18.30
2017-09-06T02:00:06.851Z,18.30
2017-09-06T02:02:34.936Z,18.30
2017-09-06T02:05:02.091Z,18.30
2017-09-06T02:07:30.052Z,18.30
2017-09-06T02:09:57.199Z,18.30
2017-09-06T02:12:25.116Z,18.30
2017-09-06T02:14:53.072Z,18.30
2017-09-06T02:17:21.013Z,18.30
2017-09-06T02:19:48.955Z,18.30
2017-09-06T02:22:17.003Z,18.20
2017-09-06T02:24:44.191Z,18.30
2017-09-06T02:27:12.023Z,18.30
2017-09-06T02:29:40.068Z,18.30
2017-09-06T02:32:07.248Z,18.30
2017-09-06T02:34:35.197Z,18.20
2017-09-06T02:37:02.379Z,18.20
2017-09-06T02:39:30.428Z,18.20
2017-09-06T02:41:57.608Z,18.20
2017-09-06T02:44:25.686Z,18.20
2017-09-06T02:46:53.777Z,18.20
2017-09-06T02:49:21.698Z,18.20
2017-09-06T02:51:48.849Z,18.20
2017-09-06T02:54:16.968Z,18.20
2017-09-06T02:56:45.063Z,18.20
2017-09-06T02:59:13.025Z,18.20
2017-09-06T03:01:40.944Z,18.20
2017-09-06T03:04:08.996Z,18.20
2017-09-06T03:06:36.149Z,18.20
2017-09-06T03:09:04.077Z,18.20
2017-09-06T03:11:32.765Z,18.20
2017-09-06T03:13:59.955Z,18.20
2017-09-06T03:16:28.067Z,18.20
2017-09-06T03:18:55.212Z,18.20
2017-09-06T03:21:23.146Z,18.20
2017-09-06T03:23:51.198Z,18.20
2017-09-06T03:26:18.338Z,18.20
2017-09-06T03:28:46.285Z,18.20
2017-09-06T03:31:14.345Z,18.10
2017-09-06T03:33:42.447Z,18.10
2017-09-06T03:36:10.368Z,18.20
2017-09-06T03:38:37.518Z,18.10
2017-09-06T03:41:04.703Z,18.10
2017-09-06T03:43:32.751Z,18.10
2017-09-06T03:45:59.898Z,18.10
2017-09-06T03:48:27.832Z,18.10
2017-09-06T03:50:55.763Z,18.10
2017-09-06T03:53:23.855Z,18.10
2017-09-06T03:55:51.007Z,18.10
2017-09-06T03:58:18.949Z,18.20
2017-09-06T04:00:46.099Z,18.20
2017-09-06T04:03:14.055Z,18.20
2017-09-06T04:05:41.246Z,18.20
2017-09-06T04:08:09.303Z,18.20
2017-09-06T04:10:36.482Z,18.20
2017-09-06T04:13:04.539Z,18.20
2017-09-06T04:15:31.724Z,18.20
2017-09-06T04:17:59.654Z,18.20
2017-09-06T04:20:26.834Z,18.20
2017-09-06T04:22:54.764Z,18.20
2017-09-06T04:25:21.960Z,18.20
2017-09-06T04:27:49.144Z,18.20
2017-09-06T04:30:17.135Z,18.20
2017-09-06T04:32:45.075Z,18.20
2017-09-06T04:35:12.266Z,18.20
2017-09-06T04:37:40.328Z,18.20
2017-09-06T04:40:08.375Z,18.20
2017-09-06T04:42:36.461Z,18.20
2017-09-06T04:45:04.550Z,18.20
2017-09-06T04:47:31.734Z,18.20
2017-09-06T04:49:59.741Z,18.20
2017-09-06T04:52:27.675Z,18.20
2017-09-06T04:54:55.748Z,18.20
2017-09-06T04:57:24.560Z,18.20
2017-09-06T04:59:52.661Z,18.10
2017-09-06T05:02:19.814Z,18.20
2017-09-06T05:04:47.860Z,18.20
2017-09-06T05:07:15.012Z,18.20
2017-09-06T05:09:42.934Z,18.20
2017-09-06T05:12:10.192Z,18.20
2017-09-06T05:14:37.365Z,18.20
2017-09-06T05:17:04.557Z,18.20
2017-09-06T05:19:31.721Z,18.20
2017-09-06T05:21:58.876Z,18.20
2017-09-06T05:24:26.039Z,18.30
2017-09-06T05:26:53.206Z,18.30
2017-09-06T05:29:20.424Z,18.40
2017-09-06T05:31:47.581Z,18.50
2017-09-06T05:34:15.514Z,18.50
2017-09-06T05:36:42.677Z,18.60
2017-09-06T05:39:10.643Z,18.60
2017-09-06T05:41:37.788Z,18.70
2017-09-06T05:44:05.844Z,18.70
2017-09-06T05:46:33.041Z,18.70
2017-09-06T05:49:01.114Z,18.80
2017-09-06T05:51:28.345Z,18.80
2017-09-06T05:53:55.490Z,18.80
2017-09-06T05:56:22.638Z,18.80
2017-09-06T05:58:49.783Z,18.90
2017-09-06T06:01:17.824Z,18.90
2017-09-06T06:03:45.788Z,18.90
2017-09-06T06:06:12.944Z,18.90
2017-09-06T06:08:41.750Z,18.90
2017-09-06T06:11:08.905Z,18.90
2017-09-06T06:13:36.840Z,18.90
2017-09-06T06:16:03.992Z,18.90
2017-09-06T06:18:31.919Z,18.90
2017-09-06T06:20:59.073Z,18.90
2017-09-06T06:23:26.227Z,18.90
2017-09-06T06:25:53.412Z,18.90
2017-09-06T06:28:21.456Z,19.00
2017-09-06T06:30:48.608Z,19.00
2017-09-06T06:33:16.575Z,19.00
2017-09-06T06:35:43.728Z,18.90
2017-09-06T06:38:11.829Z,18.90
2017-09-06T06:40:39.626Z,18.90
2017-09-06T06:43:07.566Z,18.90
2017-09-06T06:45:35.683Z,18.90
2017-09-06T06:48:02.846Z,18.80
2017-09-06T06:50:30.003Z,18.90
2017-09-06T06:52:57.160Z,18.90
2017-09-06T06:55:24.320Z,19.00
2017-09-06T06:57:51.543Z,19.00
2017-09-06T07:00:19.495Z,19.00
2017-09-06T07:02:48.421Z,19.10
2017-09-06T07:05:16.504Z,19.00
2017-09-06T07:07:44.571Z,19.10
2017-09-06T07:10:11.750Z,19.10
2017-09-06T07:12:39.697Z,19.00
2017-09-06T07:15:07.699Z,19.10
2017-09-06T07:17:35.945Z,19.00
2017-09-06T07:20:04.007Z,19.10
2017-09-06T07:22:31.162Z,19.10
2017-09-06T07:24:59.098Z,19.10
2017-09-06T07:27:27.074Z,19.10
2017-09-06T07:29:55.024Z,19.10
2017-09-06T07:32:23.073Z,19.10
2017-09-06T07:34:51.019Z,19.10
2017-09-06T07:37:19.099Z,19.00
2017-09-06T07:39:46.254Z,19.10
2017-09-06T07:42:14.195Z,19.10
2017-09-06T07:44:41.344Z,19.00
2017-09-06T07:47:09.277Z,19.10
2017-09-06T07:49:38.129Z,19.10
2017-09-06T07:52:05.295Z,19.10
2017-09-06T07:54:33.410Z,19.00
2017-09-06T07:57:00.599Z,19.10
2017-09-06T07:59:28.656Z,19.10
2017-09-06T08:01:55.853Z,19.00
2017-09-06T08:04:23.920Z,19.10
2017-09-06T08:06:56.949Z,19.00
2017-09-06T08:09:25.820Z,19.00
2017-09-06T08:11:52.972Z,19.10
2017-09-06T08:14:21.024Z,19.00
2017-09-06T08:16:48.181Z,19.00
2017-09-06T08:19:16.103Z,19.00
2017-09-06T08:21:43.258Z,19.00
2017-09-06T08:24:11.192Z,19.10
2017-09-06T08:26:38.383Z,19.00
2017-09-06T08:29:06.302Z,19.00
2017-09-06T08:31:33.707Z,19.00
2017-09-06T08:34:01.632Z,19.10
2017-09-06T08:36:29.584Z,19.00
2017-09-06T08:38:56.946Z,19.00
2017-09-06T08:41:26.788Z,19.00
2017-09-06T08:43:54.767Z,19.00
2017-09-06T08:46:21.976Z,19.00
2017-09-06T08:48:49.143Z,19.00
2017-09-06T08:51:17.977Z,19.00
2017-09-06T08:53:46.038Z,19.00
2017-09-06T08:56:13.267Z,19.00
2017-09-06T08:58:41.315Z,19.00
2017-09-06T09:01:09.360Z,19.00
2017-09-06T09:03:36.519Z,19.00
2017-09-06T09:06:04.476Z,19.00
2017-09-06T09:08:32.593Z,19.00
2017-09-06T09:10:59.774Z,19.00
2017-09-06T09:13:27.822Z,19.00
2017-09-06T09:15:55.789Z,19.00
2017-09-06T09:18:23.871Z,19.00
2017-09-06T09:20:52.691Z,19.00
2017-09-06T09:23:20.764Z,19.00
2017-09-06T09:25:47.915Z,19.00
2017-09-06T09:28:15.875Z,19.00
2017-09-06T09:30:43.970Z,19.00
2017-09-06T09:33:12.063Z,19.00
2017-09-06T09:35:40.106Z,19.00
2017-09-06T09:38:08.916Z,19.00
2017-09-06T09:40:36.078Z,19.00
2017-09-06T09:43:03.225Z,19.00
2017-09-06T09:45:30.372Z,19.00
2017-09-06T09:47:57.555Z,19.00
2017-09-06T09:50:25.532Z,19.00
2017-09-06T09:52:52.823Z,19.00
2017-09-06T09:55:19.972Z,19.00
2017-09-06T09:57:48.080Z,19.00
2017-09-06T10:00:15.235Z,19.00
2017-09-06T10:02:42.528Z,19.00
2017-09-06T10:05:09.772Z,19.00
2017-09-06T10:07:37.825Z,19.00
2017-09-06T10:10:04.979Z,19.00
2017-09-06T10:12:32.128Z,19.00
2017-09-06T10:15:00.198Z,19.00
2017-09-06T10:17:27.352Z,19.00
2017-09-06T10:19:54.511Z,19.00
2017-09-06T10:22:21.660Z,19.00
2017-09-06T10:24:49.575Z,19.00
2017-09-06T10:27:16.729Z,19.00
2017-09-06T10:29:43.881Z,19.00
2017-09-06T10:32:14.856Z,19.00
2017-09-06T10:34:42.252Z,19.00
2017-09-06T10:37:09.969Z,19.00
2017-09-06T10:39:37.908Z,19.00
2017-09-06T10:42:05.100Z,19.00
2017-09-06T10:44:32.240Z,19.00
2017-09-06T10:47:02.003Z,19.00
2017-09-06T10:49:30.342Z,19.00
2017-09-06T10:51:57.502Z,19.00
2017-09-06T10:54:26.232Z,19.00
2017-09-06T10:56:53.384Z,19.00
2017-09-06T10:59:20.572Z,19.00
2017-09-06T11:01:47.725Z,19.00
2017-09-06T11:04:14.922Z,19.00
2017-09-06T11:06:42.984Z,19.00
2017-09-06T11:09:10.141Z,19.00
2017-09-06T11:11:37.289Z,19.00
2017-09-06T11:14:04.446Z,19.00
2017-09-06T11:16:31.598Z,19.00
2017-09-06T11:18:58.744Z,19.00
2017-09-06T11:21:25.886Z,19.00
2017-09-06T11:23:53.952Z,19.00
2017-09-06T11:26:21.129Z,19.00
2017-09-06T11:28:49.098Z,19.00
2017-09-06T11:31:16.258Z,19.00
2017-09-06T11:33:44.242Z,19.00
2017-09-06T11:36:11.399Z,19.00
2017-09-06T11:38:39.363Z,19.00
2017-09-06T11:41:06.515Z,19.00
2017-09-06T11:43:33.672Z,18.90
2017-09-06T11:46:00.820Z,19.00
2017-09-06T11:48:27.973Z,19.00
2017-09-06T11:50:55.300Z,19.00
2017-09-06T11:53:22.459Z,19.00
2017-09-06T11:55:49.619Z,19.00
2017-09-06T11:58:17.589Z,19.00
2017-09-06T12:00:44.744Z,19.00
2017-09-06T12:03:11.940Z,18.90
2017-09-06T12:05:39.092Z,18.90
2017-09-06T12:08:07.017Z,18.90
2017-09-06T12:10:34.171Z,18.90
2017-09-06T12:13:01.818Z,18.90
2017-09-06T12:15:28.975Z,18.90
2017-09-06T12:17:56.125Z,18.90
2017-09-06T12:20:23.271Z,18.90
2017-09-06T12:22:50.423Z,18.90
2017-09-06T12:25:17.580Z,18.90
2017-09-06T12:27:44.732Z,18.90
2017-09-06T12:30:11.884Z,18.90
2017-09-06T12:32:39.929Z,18.90
2017-09-06T12:35:07.079Z,18.90
2017-09-06T12:37:34.226Z,18.90
2017-09-06T12:40:01.613Z,19.00
2017-09-06T12:42:29.539Z,18.90
2017-09-06T12:44:57.471Z,18.90
2017-09-06T12:47:24.624Z,18.90
2017-09-06T12:49:51.776Z,18.90
2017-09-06T12:52:18.929Z,18.90
2017-09-06T12:54:46.077Z,18.90
2017-09-06T12:57:13.231Z,18.90
2017-09-06T12:59:40.415Z,18.90
2017-09-06T13:02:08.356Z,18.90
2017-09-06T13:04:35.516Z,18.90
2017-09-06T13:07:02.665Z,18.90
2017-09-06T13:09:29.851Z,18.90
2017-09-06T13:11:57.044Z,18.90
2017-09-06T13:14:24.200Z,18.90
2017-09-06T13:16:52.324Z,18.90
2017-09-06T13:19:19.474Z,18.90
2017-09-06T13:21:48.202Z,18.90
2017-09-06T13:24:15.468Z,18.90
2017-09-06T13:26:43.422Z,18.90
2017-09-06T13:29:11.520Z,18.90
2017-09-06T13:31:39.566Z,18.90
2017-09-06T13:34:08.152Z,18.90
2017-09-06T13:36:35.307Z,18.90
2017-09-06T13:39:03.396Z,18.90
2017-09-06T13:41:30.582Z,18.90
2017-09-06T13:43:57.730Z,18.90
2017-09-06T13:46:25.649Z,18.90
2017-09-06T13:48:52.847Z,18.90
2017-09-06T13:51:20.531Z,18.90
2017-09-06T13:53:47.680Z,18.90
2017-09-06T13:56:17.315Z,18.90
2017-09-06T13:58:44.473Z,18.90
2017-09-06T14:01:12.480Z,18.90
2017-09-06T14:03:39.663Z,18.90
2017-09-06T14:06:07.620Z,18.90
2017-09-06T14:08:34.803Z,18.90
2017-09-06T14:11:02.855Z,18.90
2017-09-06T14:13:30.047Z,18.90
2017-09-06T14:15:58.137Z,18.90
2017-09-06T14:18:25.308Z,18.90
2017-09-06T14:20:53.312Z,18.90
2017-09-06T14:23:21.011Z,18.90
2017-09-06T14:25:48.981Z,18.90
2017-09-06T14:28:16.422Z,18.90
2017-09-06T14:30:43.593Z,18.90
2017-09-06T14:33:11.656Z,18.90
2017-09-06T14:35:39.710Z,18.90
2017-09-06T14:38:06.868Z,18.90
2017-09-06T14:40:34.807Z,18.90
2017-09-06T14:43:02.757Z,18.90
2017-09-06T14:45:30.700Z,18.90
2017-09-06T14:47:58.680Z,18.90
2017-09-06T14:50:25.824Z,18.90
2017-09-06T14:52:53.811Z,18.90
2017-09-06T14:55:21.753Z,18.90
2017-09-06T14:57:49.728Z,18.90
2017-09-06T15:00:17.671Z,18.90
2017-09-06T15:02:45.588Z,18.90
2017-09-06T15:05:13.548Z,19.00
2017-09-06T15:07:40.738Z,19.10
2017-09-06T15:10:08.829Z,19.20
2017-09-06T15:12:36.279Z,19.30
2017-09-06T15:15:04.477Z,19.40
2017-09-06T15:17:32.571Z,19.40
2017-09-06T15:19:59.727Z,19.50
2017-09-06T15:22:26.922Z,19.50
2017-09-06T15:24:54.861Z,19.50
2017-09-06T15:27:22.870Z,19.50
2017-09-06T15:29:50.920Z,19.60
2017-09-06T15:32:18.119Z,19.60
2017-09-06T15:34:45.277Z,19.60
2017-09-06T15:37:12.432Z,19.60
2017-09-06T15:39:39.716Z,19.60
2017-09-06T15:42:07.949Z,19.60
2017-09-06T15:44:35.099Z,19.60
2017-09-06T15:47:03.206Z,19.60
2017-09-06T15:49:30.587Z,19.60
2017-09-06T15:51:59.317Z,19.60
2017-09-06T15:54:26.468Z,19.60
2017-09-06T15:56:53.652Z,19.60
2017-09-06T15:59:20.858Z,19.60
2017-09-06T16:01:48.901Z,19.60
2017-09-06T16:04:16.048Z,19.60
2017-09-06T16:06:44.000Z,19.60
2017-09-06T16:09:11.157Z,19.60
2017-09-06T16:11:39.147Z,19.60
2017-09-06T16:14:06.350Z,19.60
2017-09-06T16:16:34.314Z,19.60
2017-09-06T16:19:02.306Z,19.60
2017-09-06T16:21:30.403Z,19.50
2017-09-06T16:23:58.539Z,19.50
2017-09-06T16:26:26.619Z,19.50
2017-09-06T16:28:53.764Z,19.50
2017-09-06T16:31:20.953Z,19.50
2017-09-06T16:33:48.107Z,19.50
2017-09-06T16:36:15.305Z,19.50
2017-09-06T16:38:43.252Z,19.50
2017-09-06T16:41:10.416Z,19.50
2017-09-06T16:43:39.013Z,19.50
2017-09-06T16:46:06.171Z,19.50
2017-09-06T16:48:34.285Z,19.50
2017-09-06T16:51:07.003Z,19.50
2017-09-06T16:53:34.197Z,19.50
2017-09-06T16:56:02.374Z,19.50
2017-09-06T16:58:29.564Z,19.50
2017-09-06T17:00:58.285Z,19.50
2017-09-06T17:03:26.389Z,19.50
2017-09-06T17:05:53.541Z,19.50
2017-09-06T17:08:20.693Z,19.50
2017-09-06T17:10:47.880Z,19.50
2017-09-06T17:13:15.807Z,19.50
2017-09-06T17:15:43.003Z,19.50
2017-09-06T17:18:10.936Z,19.50
2017-09-06T17:20:38.875Z,19.50
2017-09-06T17:23:06.960Z,19.50
2017-09-06T17:25:34.114Z,19.50
2017-09-06T17:28:01.304Z,19.50
2017-09-06T17:30:28.500Z,19.50
2017-09-06T17:32:55.871Z,19.50
2017-09-06T17:35:23.108Z,19.50
2017-09-06T17:37:50.283Z,19.50
2017-09-06T17:40:17.480Z,19.50
2017-09-06T17:42:44.627Z,19.50
2017-09-06T17:45:12.580Z,19.50
2017-09-06T17:47:40.670Z,19.50
2017-09-06T17:50:07.836Z,19.50
2017-09-06T17:52:35.782Z,19.50
2017-09-06T17:55:02.950Z,19.50
2017-09-06T17:57:31.084Z,19.50
2017-09-06T17:59:58.280Z,19.50
2017-09-06T18:02:25.427Z,19.50
2017-09-06T18:04:53.390Z,19.50
2017-09-06T18:07:21.391Z,19.40
2017-09-06T18:09:49.489Z,19.40
2017-09-06T18:12:17.636Z,19.40
2017-09-06T18:14:45.306Z,19.40
2017-09-06T18:17:12.843Z,19.40
2017-09-06T18:19:39.997Z,19.40
2017-09-06T18:22:07.298Z,19.50
2017-09-06T18:24:34.470Z,19.50
2017-09-06T18:27:03.442Z,19.50
2017-09-06T18:29:30.659Z,19.50
2017-09-06T18:31:57.825Z,19.40
2017-09-06T18:34:24.976Z,19.50
2017-09-06T18:36:52.482Z,19.50
2017-09-06T18:39:19.636Z,19.50
2017-09-06T18:41:47.659Z,19.40
2017-09-06T18:44:14.851Z,19.40
2017-09-06T18:46:42.063Z,19.40
2017-09-06T18:49:10.217Z,19.40
2017-09-06T18:51:38.419Z,19.40
2017-09-06T18:54:06.491Z,19.40
2017-09-06T18:56:33.662Z,19.40
2017-09-06T18:59:00.845Z,19.40
2017-09-06T19:01:28.049Z,19.40
2017-09-06T19:03:55.226Z,19.40
2017-09-06T19:06:22.426Z,19.40
2017-09-06T19:08:49.631Z,19.40
2017-09-06T19:11:16.829Z,19.40
2017-09-06T19:13:44.014Z,19.40
2017-09-06T19:16:11.202Z,19.40
2017-09-06T19:18:39.169Z,19.40
2017-09-06T19:21:06.339Z,19.30
2017-09-06T19:23:34.777Z,19.30
2017-09-06T19:26:01.952Z,19.30
2017-09-06T19:28:29.124Z,19.30
2017-09-06T19:30:56.338Z,19.30
2017-09-06T19:33:23.536Z,19.30
2017-09-06T19:35:50.972Z,19.30
2017-09-06T19:38:18.328Z,19.30
2017-09-06T19:40:46.253Z,19.30
2017-09-06T19:43:14.211Z,19.30
2017-09-06T19:45:41.371Z,19.30
2017-09-06T19:48:08.595Z,19.30
2017-09-06T19:50:35.884Z,19.30
2017-09-06T19:53:03.096Z,19.30
2017-09-06T19:55:30.289Z,19.30
2017-09-06T19:57:57.440Z,19.30
2017-09-06T20:00:25.649Z,19.30
2017-09-06T20:02:52.844Z,19.30
2017-09-06T20:05:20.035Z,19.30
2017-09-06T20:07:47.203Z,19.30
2017-09-06T20:10:16.898Z,19.30
2017-09-06T20:12:44.182Z,19.30
2017-09-06T20:15:11.334Z,19.30
2017-09-06T20:17:40.208Z,19.30
2017-09-06T20:20:08.263Z,19.20
2017-09-06T20:22:36.390Z,19.20
2017-09-06T20:25:05.308Z,19.20
2017-09-06T20:27:32.494Z,19.20
2017-09-06T20:29:59.711Z,19.20
2017-09-06T20:32:26.869Z,19.20
2017-09-06T20:34:54.036Z,19.20
2017-09-06T20:37:21.191Z,19.20
2017-09-06T20:39:48.339Z,19.20
2017-09-06T20:42:16.400Z,19.20
2017-09-06T20:44:43.543Z,19.20
2017-09-06T20:47:10.712Z,19.20
2017-09-06T20:49:37.870Z,19.20
2017-09-06T20:52:05.015Z,19.20
2017-09-06T20:54:33.153Z,19.20
2017-09-06T20:57:00.317Z,19.20
2017-09-06T20:59:27.469Z,19.20
2017-09-06T21:01:54.636Z,19.20
2017-09-06T21:04:21.834Z,19.20
2017-09-06T21:06:49.787Z,19.20
2017-09-06T21:09:16.948Z,19.20
2017-09-06T21:11:44.155Z,19.20
2017-09-06T21:14:11.314Z,19.20
2017-09-06T21:16:38.466Z,19.20
2017-09-06T21:19:05.657Z,19.20
2017-09-06T21:21:32.808Z,19.20
2017-09-06T21:24:00.766Z,19.20
2017-09-06T21:26:27.917Z,19.20
2017-09-06T21:28:55.146Z,19.20
2017-09-06T21:31:22.300Z,19.20
2017-09-06T21:33:49.448Z,19.20
2017-09-06T21:36:16.649Z,19.20
2017-09-06T21:38:44.567Z,19.20
2017-09-06T21:41:11.719Z,19.20
2017-09-06T21:43:38.896Z,19.20
2017-09-06T21:46:06.051Z,19.20
2017-09-06T21:48:33.236Z,19.20
2017-09-06T21:51:00.390Z,19.20
2017-09-06T21:53:27.544Z,19.20
2017-09-06T21:55:54.736Z,19.20
2017-09-06T21:58:21.884Z,19.20
2017-09-06T22:00:49.059Z,19.20
2017-09-06T22:03:17.906Z,19.20
2017-09-06T22:05:45.087Z,19.20
2017-09-06T22:08:13.145Z,19.20
2017-09-06T22:10:40.664Z,19.20
2017-09-06T22:13:07.883Z,19.20
2017-09-06T22:15:35.796Z,19.20
2017-09-06T22:18:02.949Z,19.10
2017-09-06T22:20:30.125Z,19.20
2017-09-06T22:22:57.276Z,19.20
2017-09-06T22:25:24.451Z,19.20
2017-09-06T22:27:52.491Z,19.20
2017-09-06T22:30:20.435Z,19.20
2017-09-06T22:32:47.632Z,19.10
2017-09-06T22:35:14.798Z,19.10
2017-09-06T22:37:42.927Z,19.10
2017-09-06T22:40:10.078Z,19.10
2017-09-06T22:42:37.228Z,19.10
2017-09-06T22:45:04.377Z,19.10
2017-09-06T22:47:31.522Z,19.10
2017-09-06T22:49:59.494Z,19.10
2017-09-06T22:52:26.638Z,19.10
2017-09-06T22:54:53.780Z,19.10
2017-09-06T22:57:21.713Z,19.10
2017-09-06T22:59:48.907Z,19.10
2017-09-06T23:02:16.996Z,19.10
2017-09-06T23:04:44.142Z,19.10
2017-09-06T23:07:11.299Z,19.10
2017-09-06T23:09:38.447Z,19.10
2017-09-06T23:12:05.596Z,19.10
2017-09-06T23:14:32.745Z,19.10
2017-09-06T23:17:00.035Z,19.10
2017-09-06T23:19:27.183Z,19.10
2017-09-06T23:21:55.096Z,19.10
2017-09-06T23:24:23.208Z,19.10
2017-09-06T23:26:50.403Z,19.10
2017-09-06T23:29:17.585Z,19.10
2017-09-06T23:31:44.737Z,19.10
2017-09-06T23:34:11.957Z,19.10
2017-09-06T23:36:40.775Z,19.10
2017-09-06T23:39:07.928Z,19.10
2017-09-06T23:41:35.851Z,19.10
2017-09-06T23:44:03.039Z,19.10
2017-09-06T23:46:30.211Z,19.10
2017-09-06T23:48:58.254Z,19.10
2017-09-06T23:51:25.432Z,19.10
2017-09-06T23:53:52.583Z,19.10
2017-09-06T23:56:19.767Z,19.10
2017-09-06T23:58:47.727Z,19.10
